sensor_id;sensor_type;location;lat;lon;timestamp;P1;durP1;ratioP1;P2;durP2;ratioP2
32216;SDS011;67098;51.140;4.088;2023-03-13T00:00:10;23.95;;;4.70;;
32216;SDS011;67098;51.140;4.088;2023-03-13T00:02:37;22.98;;;4.60;;
32216;SDS011;67098;51.140;4.088;2023-03-13T00:05:02;19.83;;;4.22;;
32216;SDS011;67098;51.140;4.088;2023-03-13T00:07:28;27.58;;;5.07;;
32216;SDS011;67098;51.140;4.088;2023-03-13T00:09:54;22.77;;;4.78;;
32216;SDS011;67098;51.140;4.088;2023-03-13T00:12:19;25.80;;;4.60;;
32216;SDS011;67098;51.140;4.088;2023-03-13T00:14:45;20.15;;;5.15;;
32216;SDS011;67098;51.140;4.088;2023-03-13T00:17:10;23.73;;;5.18;;
32216;SDS011;67098;51.140;4.088;2023-03-13T00:19:36;23.42;;;4.75;;
32216;SDS011;67098;51.140;4.088;2023-03-13T00:22:01;19.92;;;5.00;;
32216;SDS011;67098;51.140;4.088;2023-03-13T00:24:27;21.33;;;4.90;;
32216;SDS011;67098;51.140;4.088;2023-03-13T00:26:53;21.48;;;5.30;;
32216;SDS011;67098;51.140;4.088;2023-03-13T00:29:19;28.88;;;4.97;;
32216;SDS011;67098;51.140;4.088;2023-03-13T00:31:45;18.00;;;4.45;;
32216;SDS011;67098;51.140;4.088;2023-03-13T00:34:11;20.85;;;5.00;;
32216;SDS011;67098;51.140;4.088;2023-03-13T00:36:36;20.88;;;4.72;;
32216;SDS011;67098;51.140;4.088;2023-03-13T00:39:03;22.42;;;5.43;;
32216;SDS011;67098;51.140;4.088;2023-03-13T00:41:30;19.55;;;5.28;;
32216;SDS011;67098;51.140;4.088;2023-03-13T00:43:57;27.98;;;5.05;;
32216;SDS011;67098;51.140;4.088;2023-03-13T00:46:24;18.90;;;5.03;;
32216;SDS011;67098;51.140;4.088;2023-03-13T00:48:50;17.88;;;6.03;;
32216;SDS011;67098;51.140;4.088;2023-03-13T00:51:17;18.73;;;4.68;;
32216;SDS011;67098;51.140;4.088;2023-03-13T00:53:44;22.27;;;5.28;;
32216;SDS011;67098;51.140;4.088;2023-03-13T00:56:11;17.88;;;5.00;;
32216;SDS011;67098;51.140;4.088;2023-03-13T00:58:39;23.17;;;5.40;;
32216;SDS011;67098;51.140;4.088;2023-03-13T01:03:34;15.80;;;5.20;;
32216;SDS011;67098;51.140;4.088;2023-03-13T01:06:00;16.42;;;4.93;;
32216;SDS011;67098;51.140;4.088;2023-03-13T01:08:27;19.33;;;5.68;;
32216;SDS011;67098;51.140;4.088;2023-03-13T01:10:57;21.17;;;5.45;;
32216;SDS011;67098;51.140;4.088;2023-03-13T01:13:28;15.38;;;5.78;;
32216;SDS011;67098;51.140;4.088;2023-03-13T01:15:54;18.30;;;5.75;;
32216;SDS011;67098;51.140;4.088;2023-03-13T01:18:20;20.55;;;6.63;;
32216;SDS011;67098;51.140;4.088;2023-03-13T01:20:46;19.67;;;6.85;;
32216;SDS011;67098;51.140;4.088;2023-03-13T01:23:12;19.20;;;6.55;;
32216;SDS011;67098;51.140;4.088;2023-03-13T01:25:38;19.58;;;7.97;;
32216;SDS011;67098;51.140;4.088;2023-03-13T01:28:04;16.65;;;6.90;;
32216;SDS011;67098;51.140;4.088;2023-03-13T01:30:30;12.73;;;6.97;;
32216;SDS011;67098;51.140;4.088;2023-03-13T01:32:56;20.88;;;7.40;;
32216;SDS011;67098;51.140;4.088;2023-03-13T01:35:21;16.67;;;7.72;;
32216;SDS011;67098;51.140;4.088;2023-03-13T01:37:47;19.27;;;8.02;;
32216;SDS011;67098;51.140;4.088;2023-03-13T01:40:13;23.42;;;7.15;;
32216;SDS011;67098;51.140;4.088;2023-03-13T01:42:48;15.48;;;6.60;;
32216;SDS011;67098;51.140;4.088;2023-03-13T01:51:32;12.57;;;6.45;;
32216;SDS011;67098;51.140;4.088;2023-03-13T01:54:21;18.02;;;6.68;;
32216;SDS011;67098;51.140;4.088;2023-03-13T01:56:54;13.18;;;6.97;;
32216;SDS011;67098;51.140;4.088;2023-03-13T01:59:22;16.13;;;7.15;;
32216;SDS011;67098;51.140;4.088;2023-03-13T02:01:53;11.30;;;6.38;;
32216;SDS011;67098;51.140;4.088;2023-03-13T02:04:22;16.80;;;6.35;;
32216;SDS011;67098;51.140;4.088;2023-03-13T02:06:49;16.23;;;6.95;;
32216;SDS011;67098;51.140;4.088;2023-03-13T02:09:20;15.13;;;6.60;;
32216;SDS011;67098;51.140;4.088;2023-03-13T02:14:29;9.20;;;5.93;;
32216;SDS011;67098;51.140;4.088;2023-03-13T02:16:59;12.25;;;6.65;;
32216;SDS011;67098;51.140;4.088;2023-03-13T02:19:34;15.40;;;7.30;;
32216;SDS011;67098;51.140;4.088;2023-03-13T02:27:51;9.55;;;6.43;;
32216;SDS011;67098;51.140;4.088;2023-03-13T02:30:30;11.10;;;6.88;;
32216;SDS011;67098;51.140;4.088;2023-03-13T02:32:57;10.65;;;6.47;;
32216;SDS011;67098;51.140;4.088;2023-03-13T02:35:24;13.63;;;6.10;;
32216;SDS011;67098;51.140;4.088;2023-03-13T02:37:51;11.10;;;5.57;;
32216;SDS011;67098;51.140;4.088;2023-03-13T02:40:21;10.15;;;5.40;;
32216;SDS011;67098;51.140;4.088;2023-03-13T02:42:50;9.40;;;4.95;;
32216;SDS011;67098;51.140;4.088;2023-03-13T02:45:17;12.95;;;5.07;;
32216;SDS011;67098;51.140;4.088;2023-03-13T02:47:43;6.88;;;4.47;;
32216;SDS011;67098;51.140;4.088;2023-03-13T02:50:09;8.52;;;4.55;;
32216;SDS011;67098;51.140;4.088;2023-03-13T02:52:36;10.10;;;4.63;;
32216;SDS011;67098;51.140;4.088;2023-03-13T02:57:34;10.07;;;4.57;;
32216;SDS011;67098;51.140;4.088;2023-03-13T03:00:00;11.13;;;4.75;;
32216;SDS011;67098;51.140;4.088;2023-03-13T03:02:26;11.52;;;4.78;;
32216;SDS011;67098;51.140;4.088;2023-03-13T03:04:51;9.68;;;5.00;;
32216;SDS011;67098;51.140;4.088;2023-03-13T03:07:17;10.57;;;4.75;;
32216;SDS011;67098;51.140;4.088;2023-03-13T03:09:43;10.93;;;5.20;;
32216;SDS011;67098;51.140;4.088;2023-03-13T03:12:08;9.02;;;5.18;;
32216;SDS011;67098;51.140;4.088;2023-03-13T03:14:34;11.88;;;4.72;;
32216;SDS011;67098;51.140;4.088;2023-03-13T03:17:00;10.02;;;4.10;;
32216;SDS011;67098;51.140;4.088;2023-03-13T03:19:25;9.52;;;4.45;;
32216;SDS011;67098;51.140;4.088;2023-03-13T03:21:51;9.43;;;4.35;;
32216;SDS011;67098;51.140;4.088;2023-03-13T03:24:17;6.28;;;3.97;;
32216;SDS011;67098;51.140;4.088;2023-03-13T03:26:42;12.68;;;4.45;;
32216;SDS011;67098;51.140;4.088;2023-03-13T03:29:08;10.63;;;4.07;;
32216;SDS011;67098;51.140;4.088;2023-03-13T03:31:35;11.38;;;4.00;;
32216;SDS011;67098;51.140;4.088;2023-03-13T03:34:00;7.28;;;3.88;;
32216;SDS011;67098;51.140;4.088;2023-03-13T03:36:26;8.60;;;4.30;;
32216;SDS011;67098;51.140;4.088;2023-03-13T03:38:52;8.13;;;3.60;;
32216;SDS011;67098;51.140;4.088;2023-03-13T03:41:18;6.25;;;3.38;;
32216;SDS011;67098;51.140;4.088;2023-03-13T03:43:45;7.35;;;3.85;;
32216;SDS011;67098;51.140;4.088;2023-03-13T03:46:11;8.05;;;3.47;;
32216;SDS011;67098;51.140;4.088;2023-03-13T03:48:37;4.85;;;3.53;;
32216;SDS011;67098;51.140;4.088;2023-03-13T03:51:03;5.13;;;3.40;;
32216;SDS011;67098;51.140;4.088;2023-03-13T03:53:29;6.63;;;3.53;;
32216;SDS011;67098;51.140;4.088;2023-03-13T03:55:56;6.97;;;3.60;;
32216;SDS011;67098;51.140;4.088;2023-03-13T03:58:22;9.65;;;3.15;;
32216;SDS011;67098;51.140;4.088;2023-03-13T04:00:48;9.40;;;3.47;;
32216;SDS011;67098;51.140;4.088;2023-03-13T04:03:13;8.07;;;3.60;;
32216;SDS011;67098;51.140;4.088;2023-03-13T04:05:40;6.25;;;3.25;;
32216;SDS011;67098;51.140;4.088;2023-03-13T04:08:07;12.40;;;3.65;;
32216;SDS011;67098;51.140;4.088;2023-03-13T04:10:33;8.55;;;3.35;;
32216;SDS011;67098;51.140;4.088;2023-03-13T04:12:59;8.35;;;3.20;;
32216;SDS011;67098;51.140;4.088;2023-03-13T04:15:24;10.77;;;3.60;;
32216;SDS011;67098;51.140;4.088;2023-03-13T04:17:50;7.68;;;3.38;;
32216;SDS011;67098;51.140;4.088;2023-03-13T04:20:15;5.68;;;2.67;;
32216;SDS011;67098;51.140;4.088;2023-03-13T04:22:41;8.98;;;3.38;;
32216;SDS011;67098;51.140;4.088;2023-03-13T04:25:07;7.95;;;3.03;;
32216;SDS011;67098;51.140;4.088;2023-03-13T04:27:33;9.45;;;3.92;;
32216;SDS011;67098;51.140;4.088;2023-03-13T04:29:59;10.05;;;3.22;;
32216;SDS011;67098;51.140;4.088;2023-03-13T04:32:24;11.82;;;3.47;;
32216;SDS011;67098;51.140;4.088;2023-03-13T04:34:51;8.40;;;3.15;;
32216;SDS011;67098;51.140;4.088;2023-03-13T04:37:16;12.90;;;3.33;;
32216;SDS011;67098;51.140;4.088;2023-03-13T04:39:42;10.20;;;3.35;;
32216;SDS011;67098;51.140;4.088;2023-03-13T04:42:09;9.55;;;3.03;;
32216;SDS011;67098;51.140;4.088;2023-03-13T04:44:35;8.23;;;3.22;;
32216;SDS011;67098;51.140;4.088;2023-03-13T04:47:01;12.88;;;3.60;;
32216;SDS011;67098;51.140;4.088;2023-03-13T04:49:27;10.75;;;3.10;;
32216;SDS011;67098;51.140;4.088;2023-03-13T04:51:53;11.43;;;3.30;;
32216;SDS011;67098;51.140;4.088;2023-03-13T04:54:18;11.30;;;3.42;;
32216;SDS011;67098;51.140;4.088;2023-03-13T04:56:44;9.80;;;2.80;;
32216;SDS011;67098;51.140;4.088;2023-03-13T04:59:10;8.75;;;3.38;;
32216;SDS011;67098;51.140;4.088;2023-03-13T05:01:36;10.63;;;3.22;;
32216;SDS011;67098;51.140;4.088;2023-03-13T05:04:02;12.57;;;3.08;;
32216;SDS011;67098;51.140;4.088;2023-03-13T05:06:28;13.07;;;4.20;;
32216;SDS011;67098;51.140;4.088;2023-03-13T05:08:53;8.57;;;3.30;;
32216;SDS011;67098;51.140;4.088;2023-03-13T05:11:19;9.85;;;3.20;;
32216;SDS011;67098;51.140;4.088;2023-03-13T05:13:44;7.53;;;2.97;;
32216;SDS011;67098;51.140;4.088;2023-03-13T05:16:10;9.60;;;3.78;;
32216;SDS011;67098;51.140;4.088;2023-03-13T05:18:36;11.57;;;3.38;;
32216;SDS011;67098;51.140;4.088;2023-03-13T05:21:03;12.60;;;3.35;;
32216;SDS011;67098;51.140;4.088;2023-03-13T05:23:29;7.45;;;3.08;;
32216;SDS011;67098;51.140;4.088;2023-03-13T05:25:55;10.88;;;3.42;;
32216;SDS011;67098;51.140;4.088;2023-03-13T05:28:20;10.23;;;3.13;;
32216;SDS011;67098;51.140;4.088;2023-03-13T05:30:46;10.85;;;3.17;;
32216;SDS011;67098;51.140;4.088;2023-03-13T05:33:11;9.90;;;2.92;;
32216;SDS011;67098;51.140;4.088;2023-03-13T05:35:37;11.43;;;3.13;;
32216;SDS011;67098;51.140;4.088;2023-03-13T05:38:03;14.07;;;3.42;;
32216;SDS011;67098;51.140;4.088;2023-03-13T05:40:28;9.27;;;3.20;;
32216;SDS011;67098;51.140;4.088;2023-03-13T05:42:54;13.00;;;3.35;;
32216;SDS011;67098;51.140;4.088;2023-03-13T05:45:20;16.38;;;3.85;;
32216;SDS011;67098;51.140;4.088;2023-03-13T05:47:45;10.10;;;3.22;;
32216;SDS011;67098;51.140;4.088;2023-03-13T05:50:11;11.55;;;2.97;;
32216;SDS011;67098;51.140;4.088;2023-03-13T05:52:37;9.63;;;3.10;;
32216;SDS011;67098;51.140;4.088;2023-03-13T05:55:02;9.98;;;2.80;;
32216;SDS011;67098;51.140;4.088;2023-03-13T05:57:28;8.32;;;2.83;;
32216;SDS011;67098;51.140;4.088;2023-03-13T05:59:54;11.82;;;3.03;;
32216;SDS011;67098;51.140;4.088;2023-03-13T06:02:19;11.23;;;3.08;;
32216;SDS011;67098;51.140;4.088;2023-03-13T06:04:45;8.95;;;3.10;;
32216;SDS011;67098;51.140;4.088;2023-03-13T06:07:11;14.52;;;3.33;;
32216;SDS011;67098;51.140;4.088;2023-03-13T06:09:37;13.43;;;3.42;;
32216;SDS011;67098;51.140;4.088;2023-03-13T06:12:02;9.52;;;2.92;;
32216;SDS011;67098;51.140;4.088;2023-03-13T06:14:28;8.85;;;3.45;;
32216;SDS011;67098;51.140;4.088;2023-03-13T06:16:54;9.52;;;3.20;;
32216;SDS011;67098;51.140;4.088;2023-03-13T06:19:20;12.18;;;2.83;;
32216;SDS011;67098;51.140;4.088;2023-03-13T06:21:48;17.67;;;3.35;;
32216;SDS011;67098;51.140;4.088;2023-03-13T06:24:14;17.08;;;3.70;;
32216;SDS011;67098;51.140;4.088;2023-03-13T06:26:40;13.30;;;3.20;;
32216;SDS011;67098;51.140;4.088;2023-03-13T06:29:05;9.52;;;3.33;;
32216;SDS011;67098;51.140;4.088;2023-03-13T06:31:31;11.13;;;3.13;;
32216;SDS011;67098;51.140;4.088;2023-03-13T06:33:57;10.10;;;3.70;;
32216;SDS011;67098;51.140;4.088;2023-03-13T06:36:23;9.23;;;3.35;;
32216;SDS011;67098;51.140;4.088;2023-03-13T06:38:49;20.38;;;4.47;;
32216;SDS011;67098;51.140;4.088;2023-03-13T06:41:15;16.77;;;3.60;;
32216;SDS011;67098;51.140;4.088;2023-03-13T06:43:41;16.52;;;4.13;;
32216;SDS011;67098;51.140;4.088;2023-03-13T06:46:07;13.73;;;3.42;;
32216;SDS011;67098;51.140;4.088;2023-03-13T06:48:38;15.32;;;3.15;;
32216;SDS011;67098;51.140;4.088;2023-03-13T06:51:03;12.00;;;3.50;;
32216;SDS011;67098;51.140;4.088;2023-03-13T06:53:29;11.68;;;3.42;;
32216;SDS011;67098;51.140;4.088;2023-03-13T06:55:54;16.20;;;3.85;;
32216;SDS011;67098;51.140;4.088;2023-03-13T06:58:20;14.40;;;3.40;;
32216;SDS011;67098;51.140;4.088;2023-03-13T07:00:46;16.95;;;3.20;;
32216;SDS011;67098;51.140;4.088;2023-03-13T07:03:11;19.65;;;3.17;;
32216;SDS011;67098;51.140;4.088;2023-03-13T07:05:38;12.80;;;3.17;;
32216;SDS011;67098;51.140;4.088;2023-03-13T07:08:04;13.93;;;3.78;;
32216;SDS011;67098;51.140;4.088;2023-03-13T07:10:30;11.32;;;3.78;;
32216;SDS011;67098;51.140;4.088;2023-03-13T07:12:56;15.75;;;3.78;;
32216;SDS011;67098;51.140;4.088;2023-03-13T07:15:21;11.15;;;3.42;;
32216;SDS011;67098;51.140;4.088;2023-03-13T07:17:47;15.88;;;3.15;;
32216;SDS011;67098;51.140;4.088;2023-03-13T07:20:13;15.85;;;3.55;;
32216;SDS011;67098;51.140;4.088;2023-03-13T07:22:38;12.20;;;3.85;;
32216;SDS011;67098;51.140;4.088;2023-03-13T07:25:04;13.63;;;3.85;;
32216;SDS011;67098;51.140;4.088;2023-03-13T07:27:30;11.98;;;3.15;;
32216;SDS011;67098;51.140;4.088;2023-03-13T07:29:56;11.35;;;3.20;;
32216;SDS011;67098;51.140;4.088;2023-03-13T07:32:22;11.38;;;2.80;;
32216;SDS011;67098;51.140;4.088;2023-03-13T07:34:48;15.32;;;3.72;;
32216;SDS011;67098;51.140;4.088;2023-03-13T07:37:14;12.98;;;3.97;;
32216;SDS011;67098;51.140;4.088;2023-03-13T07:39:40;8.20;;;3.00;;
32216;SDS011;67098;51.140;4.088;2023-03-13T07:42:09;10.80;;;3.28;;
32216;SDS011;67098;51.140;4.088;2023-03-13T07:44:35;9.13;;;2.97;;
32216;SDS011;67098;51.140;4.088;2023-03-13T07:47:01;14.90;;;2.97;;
32216;SDS011;67098;51.140;4.088;2023-03-13T07:49:27;12.15;;;3.05;;
32216;SDS011;67098;51.140;4.088;2023-03-13T07:51:53;15.70;;;3.13;;
32216;SDS011;67098;51.140;4.088;2023-03-13T07:54:19;13.23;;;2.83;;
32216;SDS011;67098;51.140;4.088;2023-03-13T07:56:44;12.20;;;3.22;;
32216;SDS011;67098;51.140;4.088;2023-03-13T07:59:10;13.65;;;2.97;;
32216;SDS011;67098;51.140;4.088;2023-03-13T08:01:36;13.98;;;2.85;;
32216;SDS011;67098;51.140;4.088;2023-03-13T08:04:01;13.88;;;2.90;;
32216;SDS011;67098;51.140;4.088;2023-03-13T08:06:31;17.85;;;3.22;;
32216;SDS011;67098;51.140;4.088;2023-03-13T08:09:03;10.00;;;2.60;;
32216;SDS011;67098;51.140;4.088;2023-03-13T08:11:29;12.77;;;2.90;;
32216;SDS011;67098;51.140;4.088;2023-03-13T08:13:56;7.85;;;2.40;;
32216;SDS011;67098;51.140;4.088;2023-03-13T08:16:26;10.52;;;3.15;;
32216;SDS011;67098;51.140;4.088;2023-03-13T08:21:21;10.63;;;2.40;;
32216;SDS011;67098;51.140;4.088;2023-03-13T08:23:51;10.82;;;3.05;;
32216;SDS011;67098;51.140;4.088;2023-03-13T08:26:19;10.50;;;3.53;;
32216;SDS011;67098;51.140;4.088;2023-03-13T08:28:46;10.23;;;3.58;;
32216;SDS011;67098;51.140;4.088;2023-03-13T08:31:16;21.13;;;3.35;;
32216;SDS011;67098;51.140;4.088;2023-03-13T08:33:44;10.77;;;3.22;;
32216;SDS011;67098;51.140;4.088;2023-03-13T08:38:46;9.32;;;2.90;;
32216;SDS011;67098;51.140;4.088;2023-03-13T08:41:15;18.02;;;4.55;;
32216;SDS011;67098;51.140;4.088;2023-03-13T08:46:09;8.65;;;2.53;;
32216;SDS011;67098;51.140;4.088;2023-03-13T08:48:34;13.65;;;2.78;;
32216;SDS011;67098;51.140;4.088;2023-03-13T08:51:19;8.10;;;2.95;;
32216;SDS011;67098;51.140;4.088;2023-03-13T08:53:46;10.10;;;3.95;;
32216;SDS011;67098;51.140;4.088;2023-03-13T08:56:13;7.30;;;2.70;;
32216;SDS011;67098;51.140;4.088;2023-03-13T08:58:41;10.27;;;2.97;;
32216;SDS011;67098;51.140;4.088;2023-03-13T09:01:08;8.27;;;2.50;;
32216;SDS011;67098;51.140;4.088;2023-03-13T09:03:35;8.13;;;2.83;;
32216;SDS011;67098;51.140;4.088;2023-03-13T09:06:02;10.73;;;2.60;;
32216;SDS011;67098;51.140;4.088;2023-03-13T09:08:28;8.80;;;2.67;;
32216;SDS011;67098;51.140;4.088;2023-03-13T09:10:55;11.05;;;2.40;;
32216;SDS011;67098;51.140;4.088;2023-03-13T09:13:22;5.72;;;2.22;;
32216;SDS011;67098;51.140;4.088;2023-03-13T09:15:55;7.95;;;2.00;;
32216;SDS011;67098;51.140;4.088;2023-03-13T09:18:25;6.65;;;2.10;;
32216;SDS011;67098;51.140;4.088;2023-03-13T09:20:51;8.00;;;2.10;;
32216;SDS011;67098;51.140;4.088;2023-03-13T09:23:18;7.50;;;2.17;;
32216;SDS011;67098;51.140;4.088;2023-03-13T09:25:44;5.97;;;2.67;;
32216;SDS011;67098;51.140;4.088;2023-03-13T09:28:10;7.57;;;2.20;;
32216;SDS011;67098;51.140;4.088;2023-03-13T09:30:36;7.40;;;2.25;;
32216;SDS011;67098;51.140;4.088;2023-03-13T09:33:01;8.27;;;2.50;;
32216;SDS011;67098;51.140;4.088;2023-03-13T09:35:27;9.10;;;2.60;;
32216;SDS011;67098;51.140;4.088;2023-03-13T09:37:53;9.85;;;2.72;;
32216;SDS011;67098;51.140;4.088;2023-03-13T09:40:20;8.52;;;2.58;;
32216;SDS011;67098;51.140;4.088;2023-03-13T09:42:58;5.97;;;2.50;;
32216;SDS011;67098;51.140;4.088;2023-03-13T09:47:56;3.70;;;1.67;;
32216;SDS011;67098;51.140;4.088;2023-03-13T09:50:35;5.07;;;1.73;;
32216;SDS011;67098;51.140;4.088;2023-03-13T09:53:13;5.57;;;1.88;;
32216;SDS011;67098;51.140;4.088;2023-03-13T09:55:43;4.80;;;1.63;;
32216;SDS011;67098;51.140;4.088;2023-03-13T09:58:10;4.35;;;1.80;;
32216;SDS011;67098;51.140;4.088;2023-03-13T10:00:47;5.03;;;2.63;;
32216;SDS011;67098;51.140;4.088;2023-03-13T10:03:18;3.65;;;1.77;;
32216;SDS011;67098;51.140;4.088;2023-03-13T10:05:48;3.65;;;1.55;;
32216;SDS011;67098;51.140;4.088;2023-03-13T10:08:24;4.53;;;1.90;;
32216;SDS011;67098;51.140;4.088;2023-03-13T10:11:05;4.20;;;1.60;;
32216;SDS011;67098;51.140;4.088;2023-03-13T10:13:36;7.13;;;1.80;;
32216;SDS011;67098;51.140;4.088;2023-03-13T10:16:21;5.57;;;2.00;;
32216;SDS011;67098;51.140;4.088;2023-03-13T10:18:56;5.72;;;1.55;;
32216;SDS011;67098;51.140;4.088;2023-03-13T10:21:31;10.30;;;1.90;;
32216;SDS011;67098;51.140;4.088;2023-03-13T10:26:56;5.95;;;1.42;;
32216;SDS011;67098;51.140;4.088;2023-03-13T10:29:23;4.97;;;1.15;;
32216;SDS011;67098;51.140;4.088;2023-03-13T10:34:21;6.15;;;1.42;;
32216;SDS011;67098;51.140;4.088;2023-03-13T10:36:47;5.47;;;1.30;;
32216;SDS011;67098;51.140;4.088;2023-03-13T10:39:20;5.82;;;1.30;;
32216;SDS011;67098;51.140;4.088;2023-03-13T10:41:47;6.00;;;1.30;;
32216;SDS011;67098;51.140;4.088;2023-03-13T10:44:18;4.97;;;1.40;;
32216;SDS011;67098;51.140;4.088;2023-03-13T10:46:47;5.45;;;1.70;;
32216;SDS011;67098;51.140;4.088;2023-03-13T10:49:17;5.28;;;1.33;;
32216;SDS011;67098;51.140;4.088;2023-03-13T10:51:51;5.55;;;1.27;;
32216;SDS011;67098;51.140;4.088;2023-03-13T10:54:28;7.00;;;1.65;;
32216;SDS011;67098;51.140;4.088;2023-03-13T10:59:52;6.10;;;1.25;;
32216;SDS011;67098;51.140;4.088;2023-03-13T11:07:47;2.92;;;0.98;;
32216;SDS011;67098;51.140;4.088;2023-03-13T11:10:18;5.22;;;1.38;;
32216;SDS011;67098;51.140;4.088;2023-03-13T11:13:01;5.60;;;1.30;;
32216;SDS011;67098;51.140;4.088;2023-03-13T11:18:09;2.20;;;0.88;;
32216;SDS011;67098;51.140;4.088;2023-03-13T11:20:43;3.95;;;1.15;;
32216;SDS011;67098;51.140;4.088;2023-03-13T11:29:41;9.27;;;1.27;;
32216;SDS011;67098;51.140;4.088;2023-03-13T11:32:03;9.07;;;1.80;;
32216;SDS011;67098;51.140;4.088;2023-03-13T11:34:41;4.57;;;1.23;;
32216;SDS011;67098;51.140;4.088;2023-03-13T11:37:13;8.88;;;1.30;;
32216;SDS011;67098;51.140;4.088;2023-03-13T11:50:47;8.05;;;1.50;;
32216;SDS011;67098;51.140;4.088;2023-03-13T11:53:26;6.57;;;1.38;;
32216;SDS011;67098;51.140;4.088;2023-03-13T11:58:59;6.05;;;1.30;;
32216;SDS011;67098;51.140;4.088;2023-03-13T12:01:40;3.55;;;1.15;;
32216;SDS011;67098;51.140;4.088;2023-03-13T12:04:16;6.20;;;1.38;;
32216;SDS011;67098;51.140;4.088;2023-03-13T12:09:29;8.02;;;1.63;;
32216;SDS011;67098;51.140;4.088;2023-03-13T12:12:09;5.22;;;1.17;;
32216;SDS011;67098;51.140;4.088;2023-03-13T12:15:29;7.90;;;1.38;;
32216;SDS011;67098;51.140;4.088;2023-03-13T12:18:05;6.03;;;1.02;;
32216;SDS011;67098;51.140;4.088;2023-03-13T12:20:56;5.82;;;1.25;;
32216;SDS011;67098;51.140;4.088;2023-03-13T12:23:29;8.52;;;1.65;;
32216;SDS011;67098;51.140;4.088;2023-03-13T12:26:14;5.32;;;2.15;;
32216;SDS011;67098;51.140;4.088;2023-03-13T12:28:44;6.85;;;2.42;;
32216;SDS011;67098;51.140;4.088;2023-03-13T12:34:03;6.85;;;2.35;;
32216;SDS011;67098;51.140;4.088;2023-03-13T12:37:04;8.52;;;1.88;;
32216;SDS011;67098;51.140;4.088;2023-03-13T12:39:54;14.35;;;3.30;;
32216;SDS011;67098;51.140;4.088;2023-03-13T12:42:30;6.95;;;2.78;;
32216;SDS011;67098;51.140;4.088;2023-03-13T12:45:01;10.02;;;2.38;;
32216;SDS011;67098;51.140;4.088;2023-03-13T12:59:56;9.18;;;1.70;;
32216;SDS011;67098;51.140;4.088;2023-03-13T13:02:24;7.90;;;2.10;;
32216;SDS011;67098;51.140;4.088;2023-03-13T13:04:53;8.02;;;1.63;;
32216;SDS011;67098;51.140;4.088;2023-03-13T13:07:31;5.88;;;1.50;;
32216;SDS011;67098;51.140;4.088;2023-03-13T13:12:37;10.85;;;1.73;;
32216;SDS011;67098;51.140;4.088;2023-03-13T13:17:48;5.80;;;1.85;;
32216;SDS011;67098;51.140;4.088;2023-03-13T13:20:41;7.05;;;1.90;;
32216;SDS011;67098;51.140;4.088;2023-03-13T13:26:36;4.30;;;1.58;;
32216;SDS011;67098;51.140;4.088;2023-03-13T13:29:00;6.60;;;1.60;;
32216;SDS011;67098;51.140;4.088;2023-03-13T13:36:56;11.02;;;1.80;;
32216;SDS011;67098;51.140;4.088;2023-03-13T13:41:52;4.65;;;1.42;;
32216;SDS011;67098;51.140;4.088;2023-03-13T13:44:22;6.78;;;1.92;;
32216;SDS011;67098;51.140;4.088;2023-03-13T13:46:50;8.07;;;2.13;;
32216;SDS011;67098;51.140;4.088;2023-03-13T13:49:18;8.02;;;1.98;;
32216;SDS011;67098;51.140;4.088;2023-03-13T13:52:45;9.00;;;1.63;;
32216;SDS011;67098;51.140;4.088;2023-03-13T13:57:15;9.27;;;1.55;;
32216;SDS011;67098;51.140;4.088;2023-03-13T13:59:50;9.02;;;2.05;;
32216;SDS011;67098;51.140;4.088;2023-03-13T14:02:50;9.97;;;2.07;;
32216;SDS011;67098;51.140;4.088;2023-03-13T14:05:24;12.52;;;2.40;;
32216;SDS011;67098;51.140;4.088;2023-03-13T14:07:57;11.40;;;2.15;;
32216;SDS011;67098;51.140;4.088;2023-03-13T14:13:11;11.20;;;2.22;;
32216;SDS011;67098;51.140;4.088;2023-03-13T14:15:42;12.70;;;2.63;;
32216;SDS011;67098;51.140;4.088;2023-03-13T14:20:37;15.13;;;2.53;;
32216;SDS011;67098;51.140;4.088;2023-03-13T14:23:05;10.80;;;2.30;;
32216;SDS011;67098;51.140;4.088;2023-03-13T14:25:39;14.07;;;2.40;;
32216;SDS011;67098;51.140;4.088;2023-03-13T14:28:23;9.38;;;2.10;;
32216;SDS011;67098;51.140;4.088;2023-03-13T14:30:51;33.85;;;4.13;;
32216;SDS011;67098;51.140;4.088;2023-03-13T14:33:19;31.17;;;4.70;;
32216;SDS011;67098;51.140;4.088;2023-03-13T14:35:45;24.02;;;3.10;;
32216;SDS011;67098;51.140;4.088;2023-03-13T14:38:15;12.98;;;2.80;;
32216;SDS011;67098;51.140;4.088;2023-03-13T14:40:43;74.07;;;14.43;;
32216;SDS011;67098;51.140;4.088;2023-03-13T14:45:59;15.00;;;2.75;;
32216;SDS011;67098;51.140;4.088;2023-03-13T14:48:36;11.50;;;2.55;;
32216;SDS011;67098;51.140;4.088;2023-03-13T14:51:16;11.85;;;2.88;;
32216;SDS011;67098;51.140;4.088;2023-03-13T14:53:56;15.70;;;2.90;;
32216;SDS011;67098;51.140;4.088;2023-03-13T14:56:36;12.18;;;2.92;;
32216;SDS011;67098;51.140;4.088;2023-03-13T14:59:22;12.55;;;2.75;;
32216;SDS011;67098;51.140;4.088;2023-03-13T15:04:49;13.60;;;2.83;;
32216;SDS011;67098;51.140;4.088;2023-03-13T15:07:15;12.38;;;2.72;;
32216;SDS011;67098;51.140;4.088;2023-03-13T15:09:42;15.65;;;2.85;;
32216;SDS011;67098;51.140;4.088;2023-03-13T15:12:12;16.52;;;3.45;;
32216;SDS011;67098;51.140;4.088;2023-03-13T15:14:40;16.65;;;3.03;;
32216;SDS011;67098;51.140;4.088;2023-03-13T15:17:18;10.30;;;2.60;;
32216;SDS011;67098;51.140;4.088;2023-03-13T15:19:49;12.60;;;2.75;;
32216;SDS011;67098;51.140;4.088;2023-03-13T15:22:27;8.68;;;2.60;;
32216;SDS011;67098;51.140;4.088;2023-03-13T15:24:57;13.95;;;2.60;;
32216;SDS011;67098;51.140;4.088;2023-03-13T15:27:23;14.45;;;2.53;;
32216;SDS011;67098;51.140;4.088;2023-03-13T15:29:50;12.77;;;2.50;;
32216;SDS011;67098;51.140;4.088;2023-03-13T15:32:23;11.05;;;2.80;;
32216;SDS011;67098;51.140;4.088;2023-03-13T15:34:53;10.15;;;2.22;;
32216;SDS011;67098;51.140;4.088;2023-03-13T15:37:25;12.25;;;2.25;;
32216;SDS011;67098;51.140;4.088;2023-03-13T15:39:52;9.23;;;2.17;;
32216;SDS011;67098;51.140;4.088;2023-03-13T15:42:19;13.52;;;3.28;;
32216;SDS011;67098;51.140;4.088;2023-03-13T15:44:46;18.92;;;3.15;;
32216;SDS011;67098;51.140;4.088;2023-03-13T15:47:13;13.20;;;2.50;;
32216;SDS011;67098;51.140;4.088;2023-03-13T15:49:42;8.40;;;2.08;;
32216;SDS011;67098;51.140;4.088;2023-03-13T15:52:12;10.05;;;2.33;;
32216;SDS011;67098;51.140;4.088;2023-03-13T15:54:42;9.73;;;2.10;;
32216;SDS011;67098;51.140;4.088;2023-03-13T15:57:15;14.52;;;2.35;;
32216;SDS011;67098;51.140;4.088;2023-03-13T15:59:49;11.15;;;2.45;;
32216;SDS011;67098;51.140;4.088;2023-03-13T16:02:17;6.35;;;2.15;;
32216;SDS011;67098;51.140;4.088;2023-03-13T16:04:44;14.77;;;2.58;;
32216;SDS011;67098;51.140;4.088;2023-03-13T16:07:14;15.68;;;3.05;;
32216;SDS011;67098;51.140;4.088;2023-03-13T16:09:42;14.55;;;2.40;;
32216;SDS011;67098;51.140;4.088;2023-03-13T16:12:08;13.93;;;2.25;;
32216;SDS011;67098;51.140;4.088;2023-03-13T16:14:34;22.98;;;2.53;;
32216;SDS011;67098;51.140;4.088;2023-03-13T16:17:01;11.70;;;2.50;;
32216;SDS011;67098;51.140;4.088;2023-03-13T16:19:28;14.55;;;2.45;;
32216;SDS011;67098;51.140;4.088;2023-03-13T16:21:54;7.82;;;2.90;;
32216;SDS011;67098;51.140;4.088;2023-03-13T16:24:20;10.15;;;2.45;;
32216;SDS011;67098;51.140;4.088;2023-03-13T16:26:46;11.05;;;2.08;;
32216;SDS011;67098;51.140;4.088;2023-03-13T16:29:12;9.07;;;2.10;;
32216;SDS011;67098;51.140;4.088;2023-03-13T16:31:39;17.65;;;3.05;;
32216;SDS011;67098;51.140;4.088;2023-03-13T16:34:05;13.35;;;2.72;;
32216;SDS011;67098;51.140;4.088;2023-03-13T16:36:32;14.27;;;2.38;;
32216;SDS011;67098;51.140;4.088;2023-03-13T16:38:58;12.05;;;2.60;;
32216;SDS011;67098;51.140;4.088;2023-03-13T16:41:25;13.25;;;1.60;;
32216;SDS011;67098;51.140;4.088;2023-03-13T16:43:52;10.95;;;1.92;;